Darstellungsparameter: Aktuell verwendete Einstellungen:
Skalierung der Graphiken ... ?
xyx+y,   Skalierungsfaktor:      Skalierung: Modus: x, Faktor: 1
Darstellungszeitraum ... ?
Vom - - bis: - -   Zeitraum: 16.11.2008 - 16.11.2008
Min/Max/Avg-Anzeige ... ?
Zeige MMA aktuell
Zeige MMA Monat
Zeige MMA alles
Zeige --A aktuell
Zeige --A Monat
Zeige --A alles
Keine MMA-Anzeige
MMA:
Average (ber die Originaldaten)
MMA-Basis: 17.04.2019 - 19.05.2019
Quicknavigation für Darstellung... ?
Tage:      1T, 2T, 3T, 5T -1T -2T -3T -5T +1T +2T +3T +5T
Wochen: 1W, 2W, 3W -1W -2W -3W +1W +2W +3W
Monate: 1M, 3M, 6M -1M -3M -6M +1M +3M +6M
Jahre:    1J, 3J, 5J, 10J -1J -3J -5J -10J +1J +3J +5J +10J
Nutze für die Darstellung ... ?
Originaldaten oder Mittelwerte auf ...
Stundenbasis Tagesbasis Wochenbasis
Monatsbasis Jahresbasis      Datenbasis: Original-Daten
Darstellen als:
Statistik (Auto) Statistik J:M      Darstellung:
Zur Graphik,    zurück zur Übersicht aller Sensoren.
 
Tabellarische Datenbersicht: ?
 
Sensor: Nr:Datum:Temp:Abs-Feuchte:Windchill:Wind:
Aussen-T/F 1 16-11-2008 00:08:03 10.2 C 7.71 g/m*3 10.2 C 0 km/h
2 16-11-2008 00:20:03 10.1 C 7.85 g/m*3 10.1 C 0 km/h
3 16-11-2008 00:32:03 10 C 7.8 g/m*3 10 C 0 km/h
4 16-11-2008 00:44:03 10.1 C 7.94 g/m*3 10.1 C 0 km/h
5 16-11-2008 00:56:03 10 C 7.89 g/m*3 10 C 0 km/h
6 16-11-2008 01:08:03 10.1 C 7.94 g/m*3 10.1 C 0 km/h
7 16-11-2008 01:20:03 10.1 C 7.94 g/m*3 10.1 C 0 km/h
8 16-11-2008 01:32:03 10.1 C 7.94 g/m*3 10.1 C 0 km/h
9 16-11-2008 01:44:03 10.1 C 7.94 g/m*3 10.1 C 0 km/h
10 16-11-2008 01:56:03 10 C 7.99 g/m*3 10 C 0 km/h
11 16-11-2008 02:08:03 9.9 C 8.12 g/m*3 9.9 C 0 km/h
12 16-11-2008 02:20:03 10 C 8.08 g/m*3 10 C 0 km/h
13 16-11-2008 02:32:03 10.1 C 8.13 g/m*3 10.1 C 0 km/h
14 16-11-2008 02:44:03 10.2 C 8.18 g/m*3 10.2 C 0 km/h
15 16-11-2008 02:56:03 10.3 C 8.14 g/m*3 10.3 C 0 km/h
16 16-11-2008 03:08:03 10.3 C 8.04 g/m*3 10.3 C 0 km/h
17 16-11-2008 03:20:03 10.4 C 8 g/m*3 10.4 C 0 km/h
18 16-11-2008 03:32:03 10.4 C 8 g/m*3 10.4 C 0 km/h
19 16-11-2008 03:44:04 10.4 C 7.9 g/m*3 10.4 C 0 km/h
20 16-11-2008 03:56:04 10.4 C 7.9 g/m*3 10.4 C 0 km/h
21 16-11-2008 04:08:04 10.4 C 7.9 g/m*3 10.4 C 0 km/h
22 16-11-2008 04:20:04 10.5 C 7.95 g/m*3 10.5 C 0 km/h
23 16-11-2008 04:32:04 10.4 C 7.9 g/m*3 10.4 C 0 km/h
24 16-11-2008 04:44:04 10.5 C 7.95 g/m*3 10.5 C 0 km/h
25 16-11-2008 04:56:04 10.6 C 7.91 g/m*3 10.6 C 0 km/h
Sensor: Nr:Datum:Temp:Abs-Feuchte:Windchill:Wind:
Aussen-T/F 26 16-11-2008 05:08:04 10.7 C 7.86 g/m*3 10.7 C 0 km/h
27 16-11-2008 05:20:04 10.7 C 7.86 g/m*3 10.7 C 0 km/h
28 16-11-2008 05:32:04 10.7 C 7.86 g/m*3 10.7 C 0 km/h
29 16-11-2008 05:44:04 10.8 C 7.91 g/m*3 10.8 C 0 km/h
30 16-11-2008 05:56:04 10.8 C 7.81 g/m*3 10.8 C 0 km/h
31 16-11-2008 06:08:04 10.7 C 7.86 g/m*3 10.7 C 0 km/h
32 16-11-2008 06:20:04 10.5 C 7.86 g/m*3 10.5 C 0 km/h
33 16-11-2008 06:32:04 10.2 C 7.99 g/m*3 10.2 C 0 km/h
34 16-11-2008 06:44:04 10.3 C 8.14 g/m*3 10.3 C 0 km/h
35 16-11-2008 06:56:04 10.4 C 8.1 g/m*3 10.4 C 0 km/h
36 16-11-2008 07:08:04 10.5 C 8.15 g/m*3 10.5 C 0 km/h
37 16-11-2008 07:20:04 10.6 C 8.1 g/m*3 10.6 C 0 km/h
38 16-11-2008 07:32:04 10.7 C 8.05 g/m*3 10.7 C 0 km/h
39 16-11-2008 07:44:05 10.7 C 8.05 g/m*3 10.7 C 0 km/h
40 16-11-2008 07:56:05 10.8 C 8.11 g/m*3 10.8 C 0 km/h
41 16-11-2008 08:08:05 10.9 C 8.06 g/m*3 10.9 C 0 km/h
42 16-11-2008 08:20:01 11 C 8.01 g/m*3 11 C 0 km/h
43 16-11-2008 08:32:01 11.1 C 8.06 g/m*3 11.1 C 0 km/h
44 16-11-2008 08:44:01 11.2 C 8.01 g/m*3 11.2 C 0 km/h
45 16-11-2008 08:56:01 11.2 C 8.01 g/m*3 11.2 C 0 km/h
46 16-11-2008 09:08:01 11.2 C 8.01 g/m*3 11.2 C 0 km/h
47 16-11-2008 09:20:01 11.4 C 8.01 g/m*3 11.4 C 0 km/h
48 16-11-2008 09:32:01 11.7 C 8.16 g/m*3 11.7 C 0 km/h
49 16-11-2008 09:44:01 11.6 C 8.11 g/m*3 11.6 C 0 km/h
50 16-11-2008 09:56:02 11.6 C 8.21 g/m*3 11.6 C 0 km/h
Sensor: Nr:Datum:Temp:Abs-Feuchte:Windchill:Wind:
Aussen-T/F 51 16-11-2008 10:08:02 11.4 C 8.21 g/m*3 11.4 C 0 km/h
52 16-11-2008 10:20:02 11.2 C 8.21 g/m*3 11.2 C 0 km/h
53 16-11-2008 10:32:02 10.9 C 8.45 g/m*3 10.9 C 0 km/h
54 16-11-2008 10:44:02 10.7 C 8.64 g/m*3 10.7 C 0 km/h
55 16-11-2008 10:56:03 10.7 C 8.74 g/m*3 10.7 C 0 km/h
56 16-11-2008 11:08:03 10.8 C 8.9 g/m*3 10.8 C 0 km/h
57 16-11-2008 11:20:02 10.9 C 8.95 g/m*3 10.9 C 0 km/h
58 16-11-2008 11:32:02 11.1 C 9.07 g/m*3 11.1 C 0 km/h
59 16-11-2008 11:44:02 11.6 C 9.46 g/m*3 11.6 C 0 km/h
60 16-11-2008 11:56:02 12.2 C 9.71 g/m*3 12.2 C 0 km/h
61 16-11-2008 12:08:02 12.4 C 9.62 g/m*3 12.4 C 0 km/h
62 16-11-2008 12:20:02 12.5 C 9.46 g/m*3 12.5 C 0 km/h
63 16-11-2008 12:32:02 12.7 C 9.35 g/m*3 12.7 C 0 km/h
64 16-11-2008 12:44:02 12.7 C 9.35 g/m*3 12.7 C 0 km/h
65 16-11-2008 12:56:01 12.7 C 9.24 g/m*3 12.7 C 0 km/h
66 16-11-2008 13:08:02 12.7 C 9.13 g/m*3 12.7 C 0 km/h
67 16-11-2008 13:20:01 12.7 C 9.02 g/m*3 12.7 C 0 km/h
68 16-11-2008 13:32:02 12.4 C 8.85 g/m*3 12.4 C 0 km/h
69 16-11-2008 13:44:02 12.3 C 8.8 g/m*3 12.3 C 0 km/h
70 16-11-2008 13:56:01 12.1 C 8.79 g/m*3 12.1 C 0 km/h
71 16-11-2008 14:08:02 11.5 C 8.88 g/m*3 11.5 C 0 km/h
72 16-11-2008 14:20:01 10.9 C 8.65 g/m*3 10.9 C 0 km/h
73 16-11-2008 14:32:01 10.7 C 8.64 g/m*3 10.7 C 0 km/h
74 16-11-2008 14:44:01 10.4 C 8.58 g/m*3 10.4 C 0 km/h
75 16-11-2008 14:56:01 10.4 C 8.58 g/m*3 10.4 C 0 km/h
Sensor: Nr:Datum:Temp:Abs-Feuchte:Windchill:Wind:
Aussen-T/F 76 16-11-2008 15:08:02 10.3 C 8.62 g/m*3 10.3 C 0 km/h
77 16-11-2008 15:20:01 10.1 C 8.51 g/m*3 10.1 C 0 km/h
78 16-11-2008 15:32:02 10.1 C 8.61 g/m*3 10.1 C 0 km/h
79 16-11-2008 15:44:02 10 C 8.55 g/m*3 10 C 0 km/h
80 16-11-2008 15:56:02 9.9 C 8.68 g/m*3 9.9 C 0 km/h
81 16-11-2008 16:08:02 9.7 C 8.57 g/m*3 9.7 C 0 km/h
82 16-11-2008 16:20:02 9.6 C 8.43 g/m*3 9.6 C 0 km/h
83 16-11-2008 16:32:02 9.6 C 8.52 g/m*3 9.6 C 0 km/h
84 16-11-2008 16:44:02 9.5 C 8.37 g/m*3 9.5 C 0 km/h
85 16-11-2008 16:56:02 9.4 C 8.32 g/m*3 9.4 C 0 km/h
86 16-11-2008 17:08:02 9.1 C 7.99 g/m*3 9.1 C 0 km/h
87 16-11-2008 17:20:02 9.2 C 8.04 g/m*3 9.2 C 0 km/h
88 16-11-2008 17:32:02 9.2 C 7.95 g/m*3 9.2 C 0 km/h
89 16-11-2008 17:44:02 9.3 C 7.91 g/m*3 9.3 C 0 km/h
90 16-11-2008 17:56:02 9.1 C 7.72 g/m*3 9.1 C 0 km/h
91 16-11-2008 18:08:02 8.9 C 7.62 g/m*3 8.9 C 0 km/h
92 16-11-2008 18:20:02 8.8 C 7.66 g/m*3 8.8 C 0 km/h
93 16-11-2008 18:32:02 8.9 C 7.71 g/m*3 8.9 C 0 km/h
94 16-11-2008 18:44:02 8.9 C 7.71 g/m*3 8.9 C 0 km/h
95 16-11-2008 18:56:02 8.8 C 7.66 g/m*3 8.8 C 0 km/h
96 16-11-2008 19:08:03 8.5 C 7.43 g/m*3 8.5 C 0 km/h
97 16-11-2008 19:20:02 8.3 C 7.25 g/m*3 8.3 C 0 km/h
98 16-11-2008 19:32:02 8.2 C 7.29 g/m*3 8.2 C 0 km/h
99 16-11-2008 19:44:02 8.3 C 7.42 g/m*3 8.3 C 0 km/h
100 16-11-2008 19:56:02 8.6 C 7.39 g/m*3 8.6 C 0 km/h
Sensor: Nr:Datum:Temp:Abs-Feuchte:Windchill:Wind:
Aussen-T/F 101 16-11-2008 20:08:01 8.8 C 7.22 g/m*3 8.8 C 0 km/h
102 16-11-2008 20:20:02 8.9 C 7.01 g/m*3 8.9 C 0 km/h
103 16-11-2008 20:32:02 8.7 C 6.92 g/m*3 8.7 C 0 km/h
104 16-11-2008 20:44:02 8.7 C 6.83 g/m*3 8.7 C 0 km/h
105 16-11-2008 20:56:02 8.8 C 6.88 g/m*3 8.8 C 0 km/h
106 16-11-2008 21:08:02 8.8 C 6.79 g/m*3 8.8 C 0 km/h
107 16-11-2008 21:20:02 8.1 C 5.91 g/m*3 8.1 C 0 km/h
108 16-11-2008 21:32:02 7.6 C 5.8 g/m*3 7.6 C 0 km/h
109 16-11-2008 21:44:03 7.3 C 5.77 g/m*3 7.3 C 0 km/h
110 16-11-2008 21:56:02 7 C 5.81 g/m*3 7 C 0 km/h
111 16-11-2008 22:08:01 6.8 C 5.81 g/m*3 6.8 C 0 km/h
112 16-11-2008 22:20:01 6.7 C 5.77 g/m*3 6.7 C 0 km/h
113 16-11-2008 22:32:01 6.5 C 5.7 g/m*3 6.5 C 0 km/h
114 16-11-2008 22:44:01 6.3 C 5.7 g/m*3 6.3 C 0 km/h
115 16-11-2008 22:56:01 6.1 C 5.63 g/m*3 6.1 C 0 km/h
116 16-11-2008 23:08:01 5.8 C 5.73 g/m*3 5.8 C 0 km/h
117 16-11-2008 23:20:01 5.8 C 5.73 g/m*3 5.8 C 0 km/h
118 16-11-2008 23:32:01 5.9 C 5.7 g/m*3 5.9 C 0 km/h
119 16-11-2008 23:44:01 5.8 C 5.66 g/m*3 5.8 C 0 km/h
120 16-11-2008 23:56:01 5.6 C 5.59 g/m*3 5.6 C 0 km/h

Legende:
   Min
   Max


Maximal/Minimal-Werte vom 17.04.2019 - 19.05.2019

Sensor Min Max Avg
Temp
(Aussen-T/F)
2.2 °C
13-05-2019  06:50:00
26.6 °C
24-04-2019  17:05:00
11.51 °C

Die Daten stammen von einer Davis Vantage Pro 2 Wetter-Station und werden unter Linux mit der Software wview2wettercgi und aufbereitet. Alle Angaben erfolgen ohne Gewähr für ihre Vollständigkeit oder Richtigkeit.
Kontakt: Rainer Krienke krienke@uni-koblenz.de . Meine Webseiten an der Uni Koblenz oder privat.
Version: $Revision: 0.78 $